createdAt,value
2023-05-17T00:04:35.045Z,7.20
2023-05-17T00:09:38.892Z,7.20
2023-05-17T00:14:42.674Z,7.10
2023-05-17T00:19:47.771Z,7.00
2023-05-17T00:24:51.534Z,6.90
2023-05-17T00:29:55.345Z,6.80
2023-05-17T00:35:00.457Z,6.80
2023-05-17T00:40:05.897Z,6.70
2023-05-17T00:45:10.761Z,6.60
2023-05-17T00:50:16.039Z,6.50
2023-05-17T00:55:20.197Z,6.50
2023-05-17T01:00:27.008Z,6.40
2023-05-17T01:05:31.728Z,6.40
2023-05-17T01:10:42.404Z,6.40
2023-05-17T01:15:51.937Z,6.40
2023-05-17T01:21:02.546Z,6.40
2023-05-17T01:26:11.963Z,6.30
2023-05-17T01:31:17.356Z,6.20
2023-05-17T01:36:20.651Z,6.20
2023-05-17T01:41:30.630Z,6.20
2023-05-17T01:46:40.939Z,6.20
2023-05-17T01:51:49.590Z,6.20
2023-05-17T01:56:58.685Z,6.20
2023-05-17T02:02:08.750Z,6.10
2023-05-17T02:07:12.531Z,6.10
2023-05-17T02:12:15.984Z,6.10
2023-05-17T02:17:20.691Z,6.20
2023-05-17T02:22:23.951Z,6.20
2023-05-17T02:27:27.242Z,6.20
2023-05-17T02:32:32.203Z,6.20
2023-05-17T02:37:35.996Z,6.20
2023-05-17T02:42:39.608Z,6.10
2023-05-17T02:47:44.899Z,6.20
2023-05-17T02:52:48.646Z,6.10
2023-05-17T02:57:52.345Z,6.10
2023-05-17T03:02:59.175Z,6.00
2023-05-17T03:08:02.974Z,6.00
2023-05-17T03:13:07.427Z,5.90
2023-05-17T03:18:16.030Z,5.90
2023-05-17T03:23:20.482Z,6.00
2023-05-17T03:28:33.504Z,6.10
2023-05-17T03:33:38.774Z,6.10
2023-05-17T03:38:42.571Z,6.10
2023-05-17T03:43:46.209Z,6.00
2023-05-17T03:48:52.926Z,6.10
2023-05-17T03:54:00.428Z,6.10
2023-05-17T03:59:05.749Z,6.20
2023-05-17T04:04:11.266Z,6.20
2023-05-17T04:09:15.631Z,6.40
2023-05-17T04:14:19.831Z,6.70
2023-05-17T04:19:25.292Z,6.90
2023-05-17T04:24:29.194Z,7.00
2023-05-17T04:29:33.962Z,7.00
2023-05-17T04:34:38.747Z,7.10
2023-05-17T04:39:42.615Z,7.20
2023-05-17T04:44:46.889Z,7.90
2023-05-17T04:49:52.149Z,9.50
2023-05-17T04:54:55.554Z,10.10
2023-05-17T04:59:59.812Z,10.60
2023-05-17T05:05:06.802Z,11.60
2023-05-17T05:10:11.944Z,10.90
2023-05-17T05:15:16.523Z,9.80
2023-05-17T05:20:28.319Z,9.20
2023-05-17T05:25:33.309Z,8.90
2023-05-17T05:30:36.893Z,9.10
2023-05-17T05:35:42.566Z,9.40
2023-05-17T05:40:48.093Z,9.50
2023-05-17T05:45:51.328Z,9.80
2023-05-17T05:50:56.719Z,10.30
2023-05-17T05:56:00.086Z,10.10
2023-05-17T06:01:06.111Z,9.80
2023-05-17T06:06:11.832Z,9.60
2023-05-17T06:11:15.573Z,9.60
2023-05-17T06:16:19.245Z,9.60
2023-05-17T06:21:24.308Z,9.70
2023-05-17T06:26:29.153Z,9.70
2023-05-17T06:31:34.492Z,9.80
2023-05-17T06:36:40.781Z,10.00
2023-05-17T06:41:44.724Z,10.30
2023-05-17T06:46:53.738Z,10.80
2023-05-17T06:52:03.668Z,11.30
2023-05-17T06:57:07.650Z,11.50
2023-05-17T07:02:11.408Z,11.30
2023-05-17T07:07:16.460Z,11.50
2023-05-17T07:12:20.090Z,11.50
2023-05-17T07:17:23.809Z,11.50
2023-05-17T07:22:28.876Z,12.00
2023-05-17T07:27:32.529Z,12.20
2023-05-17T07:32:36.255Z,11.80
2023-05-17T07:37:40.968Z,11.70
2023-05-17T07:42:44.502Z,12.00
2023-05-17T07:47:48.063Z,12.20
2023-05-17T07:52:55.838Z,12.70
2023-05-17T07:57:59.460Z,12.80
2023-05-17T08:03:03.162Z,12.80
2023-05-17T08:08:07.886Z,12.80
2023-05-17T08:13:11.108Z,13.40
2023-05-17T08:18:14.458Z,13.40
2023-05-17T08:23:19.101Z,13.00
2023-05-17T08:28:22.340Z,12.50
2023-05-17T08:33:26.335Z,13.10
2023-05-17T08:38:31.531Z,13.00
2023-05-17T08:43:35.862Z,12.90
2023-05-17T08:48:42.131Z,12.70
2023-05-17T08:53:47.636Z,12.90
2023-05-17T08:58:57.909Z,13.60
2023-05-17T09:04:02.238Z,13.20
2023-05-17T09:09:08.832Z,13.00
2023-05-17T09:14:12.062Z,13.00
2023-05-17T09:19:18.076Z,13.20
2023-05-17T09:24:29.295Z,13.50
2023-05-17T09:29:33.524Z,14.30
2023-05-17T09:34:40.943Z,14.20
2023-05-17T09:39:47.349Z,13.80
2023-05-17T09:44:53.423Z,13.70
2023-05-17T09:49:58.144Z,13.90
2023-05-17T09:55:02.998Z,13.90
2023-05-17T10:00:12.421Z,14.00
2023-05-17T10:05:18.857Z,14.10
2023-05-17T10:10:23.784Z,13.60
2023-05-17T10:15:28.779Z,13.30
2023-05-17T10:20:32.394Z,13.70
2023-05-17T10:25:37.466Z,14.00
2023-05-17T10:30:41.847Z,14.70
2023-05-17T10:35:46.295Z,14.40
2023-05-17T10:40:53.318Z,14.30
2023-05-17T10:45:56.704Z,13.90
2023-05-17T10:51:07.938Z,13.90
2023-05-17T10:56:12.556Z,14.20
2023-05-17T11:01:54.332Z,14.10
2023-05-17T11:07:25.028Z,14.50
2023-05-17T11:12:38.420Z,14.40
2023-05-17T11:17:51.720Z,14.00
2023-05-17T11:22:59.395Z,14.10
2023-05-17T11:28:09.100Z,14.30
2023-05-17T11:33:21.170Z,14.20
2023-05-17T11:38:34.525Z,13.60
2023-05-17T11:43:46.254Z,13.90
2023-05-17T11:48:51.438Z,14.10
2023-05-17T11:53:56.162Z,14.70
2023-05-17T11:59:01.145Z,14.60
2023-05-17T12:04:04.451Z,14.60
2023-05-17T12:09:11.198Z,14.70
2023-05-17T12:14:18.571Z,14.90
2023-05-17T12:19:23.538Z,14.40
2023-05-17T12:24:38.604Z,14.30
2023-05-17T12:29:43.286Z,14.30
2023-05-17T12:34:48.035Z,14.50
2023-05-17T12:39:51.571Z,14.50
2023-05-17T12:44:56.253Z,13.80
2023-05-17T12:50:03.346Z,13.80
2023-05-17T12:55:07.485Z,14.40
2023-05-17T13:00:13.775Z,14.50
2023-05-17T13:05:18.648Z,14.40
2023-05-17T13:10:23.586Z,14.30
2023-05-17T13:15:32.968Z,14.40
2023-05-17T13:20:36.311Z,14.60
2023-05-17T13:25:39.690Z,14.20
2023-05-17T13:30:49.982Z,14.20
2023-05-17T13:35:53.318Z,14.20
2023-05-17T13:40:56.631Z,14.60
2023-05-17T13:46:01.368Z,14.70
2023-05-17T13:51:05.097Z,14.60
2023-05-17T13:56:08.750Z,14.50
2023-05-17T14:01:13.353Z,14.40
2023-05-17T14:06:17.000Z,14.40
2023-05-17T14:11:21.236Z,14.40
2023-05-17T14:16:26.057Z,14.50
2023-05-17T14:21:29.392Z,14.80
2023-05-17T14:26:32.695Z,14.80
2023-05-17T14:31:37.616Z,14.80
2023-05-17T14:36:40.859Z,14.80
2023-05-17T14:41:45.138Z,14.80
2023-05-17T14:46:49.897Z,15.00
2023-05-17T14:51:53.202Z,15.20
2023-05-17T14:56:56.626Z,15.30
2023-05-17T15:02:01.481Z,15.40
2023-05-17T15:07:05.004Z,15.50
2023-05-17T15:12:10.822Z,15.40
2023-05-17T15:17:17.010Z,15.50
2023-05-17T15:22:20.321Z,15.40
2023-05-17T15:27:23.524Z,15.40
2023-05-17T15:32:28.246Z,15.30
2023-05-17T15:37:31.614Z,15.30
2023-05-17T15:42:34.894Z,15.80
2023-05-17T15:47:43.582Z,16.00
2023-05-17T15:52:48.798Z,15.90
2023-05-17T15:57:52.097Z,15.80
2023-05-17T16:02:56.759Z,15.60
2023-05-17T16:08:00.055Z,15.40
2023-05-17T16:13:03.839Z,15.50
2023-05-17T16:18:10.799Z,15.70
2023-05-17T16:23:14.207Z,15.90
2023-05-17T16:28:19.375Z,16.20
2023-05-17T16:33:24.128Z,16.50
2023-05-17T16:38:27.559Z,16.50
2023-05-17T16:43:30.979Z,16.90
2023-05-17T16:48:35.806Z,17.20
2023-05-17T16:53:39.150Z,17.20
2023-05-17T16:58:42.799Z,17.00
2023-05-17T17:03:47.800Z,17.10
2023-05-17T17:08:51.112Z,17.50
2023-05-17T17:13:54.613Z,17.40
2023-05-17T17:18:59.310Z,17.40
2023-05-17T17:24:03.128Z,17.60
2023-05-17T17:29:08.200Z,17.50
2023-05-17T17:34:13.011Z,17.60
2023-05-17T17:39:17.277Z,17.50
2023-05-17T17:44:21.037Z,17.30
2023-05-17T17:49:25.942Z,17.10
2023-05-17T17:54:29.880Z,16.90
2023-05-17T17:59:33.505Z,16.70
2023-05-17T18:04:39.458Z,16.40
2023-05-17T18:09:43.430Z,16.10
2023-05-17T18:14:47.195Z,16.00
2023-05-17T18:19:53.178Z,15.80
2023-05-17T18:24:56.498Z,15.40
2023-05-17T18:30:00.038Z,14.80
2023-05-17T18:35:05.474Z,14.30
2023-05-17T18:40:10.419Z,14.00
2023-05-17T18:45:14.184Z,13.70
2023-05-17T18:50:19.298Z,13.40
2023-05-17T18:55:22.672Z,13.20
2023-05-17T19:00:26.404Z,12.90
2023-05-17T19:05:31.163Z,12.60
2023-05-17T19:10:34.493Z,12.40
2023-05-17T19:15:37.846Z,12.10
2023-05-17T19:20:42.482Z,11.90
2023-05-17T19:25:45.715Z,11.70
2023-05-17T19:30:49.100Z,11.50
2023-05-17T19:35:53.686Z,11.30
2023-05-17T19:40:56.973Z,11.20
2023-05-17T19:46:00.411Z,11.00
2023-05-17T19:51:05.836Z,10.90
2023-05-17T19:56:10.281Z,10.80
2023-05-17T20:01:13.938Z,10.70
2023-05-17T20:06:19.341Z,10.60
2023-05-17T20:11:23.134Z,10.50
2023-05-17T20:16:28.379Z,10.40
2023-05-17T20:21:33.703Z,10.30
2023-05-17T20:26:37.904Z,10.20
2023-05-17T20:31:41.710Z,10.20
2023-05-17T20:36:46.768Z,10.10
2023-05-17T20:41:50.406Z,10.10
2023-05-17T20:46:55.839Z,10.20
2023-05-17T20:52:04.275Z,10.20
2023-05-17T20:57:07.566Z,10.20
2023-05-17T21:02:10.941Z,10.20
2023-05-17T21:07:17.429Z,10.30
2023-05-17T21:12:23.180Z,10.30
2023-05-17T21:17:27.570Z,10.20
2023-05-17T21:22:32.508Z,10.20
2023-05-17T21:27:36.342Z,10.10
2023-05-17T21:32:40.034Z,10.00
2023-05-17T21:37:45.139Z,9.90
2023-05-17T21:42:49.228Z,9.90
2023-05-17T21:47:53.051Z,9.90
2023-05-17T21:52:58.132Z,9.80
2023-05-17T21:58:01.700Z,9.80
2023-05-17T22:03:05.678Z,9.80
2023-05-17T22:08:10.406Z,9.70
2023-05-17T22:13:16.172Z,9.70
2023-05-17T22:18:20.304Z,9.60
2023-05-17T22:23:25.430Z,9.50
2023-05-17T22:28:29.383Z,9.50
2023-05-17T22:33:33.070Z,9.40
2023-05-17T22:38:38.043Z,9.30
2023-05-17T22:43:41.713Z,9.30
2023-05-17T22:48:45.272Z,9.30
2023-05-17T22:53:50.355Z,9.20
2023-05-17T22:58:53.893Z,9.20
2023-05-17T23:03:57.526Z,9.20
2023-05-17T23:09:05.498Z,9.10
2023-05-17T23:14:09.075Z,8.90
2023-05-17T23:19:14.005Z,8.70
2023-05-17T23:24:19.057Z,8.60
2023-05-17T23:29:22.918Z,8.50
2023-05-17T23:34:26.724Z,8.50
2023-05-17T23:39:31.886Z,8.50
2023-05-17T23:44:36.292Z,8.50
2023-05-17T23:49:40.247Z,8.50
2023-05-17T23:54:45.183Z,8.50
2023-05-17T23:59:48.934Z,8.30
